Time;durP1;ratioP1;P1;durP2;ratioP2;P2;SDS_P1;SDS_P2;PMS_P1;PMS_P2;Temp;Humidity;BMP_temperature;BMP_pressure;BME280_temperature;BME280_humidity;BME280_pressure;Samples;Min_cycle;Max_cycle;Signal;HPM_P1;HPM_P2
2022/09/08 00:00:39;;;;;;;4.60;4.17;;;23.50;59.50;;;;;;20683;6857;117994;31
2022/09/08 00:03:04;;;;;;;6.20;4.73;;;23.30;59.80;;;;;;20484;6857;290195;31
2022/09/08 00:05:30;;;;;;;4.70;4.30;;;23.30;60.00;;;;;;20710;6857;117045;31
2022/09/08 00:07:58;;;;;;;4.63;4.23;;;23.20;60.30;;;;;;20493;6857;307325;31
2022/09/08 00:10:22;;;;;;;4.60;4.20;;;23.20;59.60;;;;;;20513;6855;338961;31
2022/09/08 00:12:48;;;;;;;4.20;3.90;;;23.30;59.10;;;;;;20732;6853;119610;31
2022/09/08 00:15:14;;;;;;;4.63;4.17;;;23.20;59.40;;;;;;20529;6853;279191;31
2022/09/08 00:17:39;;;;;;;3.37;3.17;;;23.20;59.20;;;;;;20679;6853;121666;31
2022/09/08 00:20:05;;;;;;;3.10;2.90;;;23.00;59.30;;;;;;20701;6853;117473;31
2022/09/08 00:22:32;;;;;;;3.23;3.03;;;22.60;59.70;;;;;;20482;6853;295215;31
2022/09/08 00:24:58;;;;;;;3.20;2.90;;;22.70;58.90;;;;;;20488;6853;312557;31
2022/09/08 00:27:23;;;;;;;2.90;2.60;;;22.90;58.30;;;;;;20707;6853;117245;31
2022/09/08 00:29:50;;;;;;;3.53;2.60;;;22.80;58.30;;;;;;20488;6853;308632;31
2022/09/08 00:32:17;;;;;;;3.62;2.87;;;22.90;57.40;;;;;;20506;6853;328498;31
2022/09/08 00:34:41;;;;;;;2.90;2.80;;;23.00;57.00;;;;;;20468;6853;291368;31
2022/09/08 00:37:07;;;;;;;2.97;2.43;;;23.20;57.30;;;;;;20688;6853;117207;31
2022/09/08 00:39:32;;;;;;;3.20;2.80;;;23.00;57.70;;;;;;20454;6853;280172;31
2022/09/08 00:41:58;;;;;;;2.93;2.67;;;23.00;58.00;;;;;;20678;6853;123055;31
2022/09/08 00:44:37;;;;;;;3.40;3.13;;;22.80;58.50;;;;;;20471;6853;309320;31
2022/09/08 00:47:04;;;;;;;3.90;3.40;;;22.90;59.20;;;;;;20677;6853;118239;31
2022/09/08 00:49:29;;;;;;;3.43;3.13;;;22.70;59.60;;;;;;20673;6853;117167;31
2022/09/08 00:51:55;;;;;;;3.93;2.57;;;22.50;60.20;;;;;;20660;6853;119617;31
2022/09/08 00:54:20;;;;;;;3.00;2.80;;;22.20;60.60;;;;;;20457;6853;308923;31
2022/09/08 00:56:46;;;;;;;2.75;2.55;;;22.40;60.10;;;;;;20468;6853;309314;31
2022/09/08 00:59:11;;;;;;;3.43;2.70;;;22.70;59.00;;;;;;20457;6853;285582;31
2022/09/08 01:01:38;;;;;;;3.05;2.72;;;22.90;58.50;;;;;;20656;6853;117760;31
2022/09/08 01:04:03;;;;;;;3.20;2.30;;;22.80;59.10;;;;;;20675;6853;117517;31
2022/09/08 01:14:56;;;;;;;2.60;2.50;;;22.20;60.70;;;;;;20678;6853;117273;31
2022/09/08 01:17:21;;;;;;;3.50;3.20;;;22.00;61.30;;;;;;20672;6853;119219;31
2022/09/08 01:19:46;;;;;;;4.07;3.35;;;21.90;61.80;;;;;;20437;6853;281766;31
2022/09/08 01:22:31;;;;;;;2.90;2.70;;;22.10;61.80;;;;;;20678;6852;117735;31
2022/09/08 01:25:30;;;;;;;3.00;2.73;;;22.10;61.70;;;;;;20646;6853;119117;31
2022/09/08 01:27:59;;;;;;;3.60;3.30;;;22.00;62.20;;;;;;20447;6853;309126;31
2022/09/08 01:30:24;;;;;;;4.07;3.23;;;22.30;62.00;;;;;;20639;6853;118109;31
2022/09/08 01:32:50;;;;;;;5.13;3.67;;;22.30;61.80;;;;;;20472;6853;308806;31
2022/09/08 01:35:33;;;;;;;3.87;3.50;;;22.50;61.50;;;;;;20452;6853;308605;31
2022/09/08 01:37:58;;;;;;;3.90;3.17;;;22.70;60.60;;;;;;20685;6853;117083;31
2022/09/08 01:40:24;;;;;;;3.80;3.07;;;22.60;60.80;;;;;;20473;6853;309390;31
2022/09/08 01:42:50;;;;;;;3.30;3.10;;;22.60;60.20;;;;;;20463;6853;314105;31
2022/09/08 01:45:15;;;;;;;2.80;2.60;;;22.80;59.80;;;;;;20689;6853;117657;31
2022/09/08 01:47:41;;;;;;;2.30;2.20;;;22.70;60.10;;;;;;20452;6853;304693;31
2022/09/08 01:50:08;;;;;;;2.45;2.25;;;22.80;58.90;;;;;;20688;6853;118482;31
2022/09/08 01:52:34;;;;;;;2.60;2.40;;;22.60;59.20;;;;;;20660;6853;117419;31
2022/09/08 01:55:00;;;;;;;2.10;2.00;;;22.30;59.90;;;;;;20680;6853;119269;31
2022/09/08 01:57:25;;;;;;;2.40;2.03;;;22.10;60.50;;;;;;20470;6853;309166;31
2022/09/08 01:59:51;;;;;;;2.00;1.90;;;22.20;59.90;;;;;;20665;6853;122394;31
2022/09/08 02:02:16;;;;;;;2.07;1.90;;;22.20;60.10;;;;;;20687;6853;117738;31
2022/09/08 02:04:42;;;;;;;2.67;2.30;;;22.00;60.40;;;;;;20470;6853;310188;31
2022/09/08 02:07:07;;;;;;;1.90;1.80;;;22.10;60.20;;;;;;20687;6853;117563;31
2022/09/08 02:09:35;;;;;;;2.70;2.12;;;22.10;60.30;;;;;;20450;6853;312973;31
2022/09/08 02:12:00;;;;;;;3.47;1.83;;;22.20;59.70;;;;;;20675;6853;121466;31
2022/09/08 02:14:26;;;;;;;2.77;2.00;;;22.10;60.00;;;;;;20470;6853;339142;31
2022/09/08 02:16:51;;;;;;;2.00;1.90;;;22.20;60.10;;;;;;20464;6853;310243;31
2022/09/08 02:19:17;;;;;;;2.20;2.03;;;22.40;59.30;;;;;;20457;6853;302073;31
2022/09/08 02:21:44;;;;;;;1.90;1.80;;;22.60;58.80;;;;;;20659;6853;122432;31
2022/09/08 02:24:09;;;;;;;2.23;1.90;;;22.40;59.20;;;;;;20459;6853;309355;31
2022/09/08 02:26:38;;;;;;;2.50;2.13;;;22.40;59.90;;;;;;20683;6853;117009;31
2022/09/08 02:29:03;;;;;;;3.40;1.97;;;22.30;60.10;;;;;;20465;6853;279613;31
2022/09/08 02:31:27;;;;;;;2.30;1.93;;;22.30;59.80;;;;;;20690;6853;117478;31
2022/09/08 02:33:53;;;;;;;2.00;1.90;;;22.20;60.10;;;;;;20688;6852;116907;31
2022/09/08 02:36:18;;;;;;;1.60;1.50;;;21.90;60.80;;;;;;20681;6853;118604;31
2022/09/08 02:38:49;;;;;;;2.77;1.87;;;21.70;61.50;;;;;;20678;6853;117180;31
2022/09/08 02:41:16;;;;;;;2.23;2.00;;;21.50;62.00;;;;;;20461;6853;307570;31
2022/09/08 02:43:41;;;;;;;3.12;2.10;;;21.70;62.00;;;;;;20443;6853;342556;31
2022/09/08 02:46:06;;;;;;;2.30;2.10;;;22.10;61.10;;;;;;20674;6853;123881;31
2022/09/08 02:48:32;;;;;;;3.33;1.83;;;22.00;61.20;;;;;;20674;6853;117251;31
2022/09/08 02:50:57;;;;;;;2.10;1.90;;;21.80;61.70;;;;;;20666;6853;117074;31
2022/09/08 02:53:23;;;;;;;2.90;1.90;;;21.60;62.20;;;;;;20679;6853;117648;31
2022/09/08 02:55:50;;;;;;;2.78;2.00;;;21.40;62.50;;;;;;20443;6853;313399;31
2022/09/08 02:58:16;;;;;;;4.10;2.00;;;21.60;61.70;;;;;;20453;6853;338807;31
2022/09/08 03:00:41;;;;;;;2.55;2.05;;;21.90;61.30;;;;;;20466;6853;312130;31
2022/09/08 03:03:07;;;;;;;2.77;1.77;;;22.20;60.70;;;;;;20681;6853;117389;31
2022/09/08 03:05:32;;;;;;;2.17;1.80;;;22.00;60.60;;;;;;20678;6853;117622;31
2022/09/08 03:07:58;;;;;;;3.43;2.00;;;21.80;61.50;;;;;;20449;6853;279644;31
2022/09/08 03:10:23;;;;;;;2.30;2.00;;;21.80;61.40;;;;;;20455;6853;338305;31
2022/09/08 03:12:52;;;;;;;2.33;1.90;;;22.10;60.90;;;;;;20684;6853;119386;31
2022/09/08 03:15:18;;;;;;;2.03;1.90;;;21.90;60.90;;;;;;20462;6853;345041;31
2022/09/08 03:17:44;;;;;;;1.93;1.83;;;22.00;60.70;;;;;;20451;6853;280943;31
2022/09/08 03:20:09;;;;;;;2.70;2.00;;;22.20;60.20;;;;;;20476;6853;309570;31
2022/09/08 03:22:35;;;;;;;2.03;1.77;;;22.30;60.00;;;;;;20676;6853;117046;31
2022/09/08 03:25:00;;;;;;;2.10;1.73;;;22.10;60.40;;;;;;20472;6853;314552;31
2022/09/08 03:27:26;;;;;;;1.90;1.80;;;22.10;60.60;;;;;;20686;6853;117117;31
2022/09/08 03:29:53;;;;;;;2.00;1.90;;;22.00;61.00;;;;;;20452;6853;279203;31
2022/09/08 03:32:17;;;;;;;1.90;1.80;;;22.00;60.80;;;;;;20712;6853;116881;31
2022/09/08 03:34:43;;;;;;;2.15;1.90;;;21.90;61.30;;;;;;20501;6853;301396;31
2022/09/08 03:37:08;;;;;;;1.77;1.67;;;21.90;60.80;;;;;;20735;6853;116776;31
2022/09/08 03:39:34;;;;;;;1.58;1.48;;;21.80;61.10;;;;;;20692;6853;117620;31
2022/09/08 03:41:59;;;;;;;2.10;1.40;;;21.60;61.60;;;;;;20663;6853;117683;31
2022/09/08 03:44:25;;;;;;;1.67;1.57;;;21.30;61.90;;;;;;20693;6852;121327;31
2022/09/08 03:46:50;;;;;;;1.70;1.60;;;21.10;62.40;;;;;;20481;6853;279273;31
2022/09/08 03:49:16;;;;;;;1.60;1.50;;;21.30;61.80;;;;;;20483;6853;307971;31
2022/09/08 03:51:42;;;;;;;2.57;1.33;;;21.70;61.10;;;;;;20662;6853;117414;31
2022/09/08 03:56:53;;;;;;;4.03;1.30;;;21.30;61.60;;;;;;20755;6853;116687;31
2022/09/08 03:59:18;;;;;;;2.80;1.10;;;21.10;62.20;;;;;;20762;6853;123068;31
2022/09/08 04:01:44;;;;;;;2.15;1.60;;;20.90;62.70;;;;;;20573;6853;307842;31
2022/09/08 04:04:09;;;;;;;3.77;1.50;;;21.10;62.20;;;;;;20766;6853;116596;31
2022/09/08 04:06:35;;;;;;;1.60;1.50;;;21.10;62.10;;;;;;20501;6853;295470;31
2022/09/08 04:09:02;;;;;;;2.10;1.37;;;21.30;61.60;;;;;;20706;6853;117412;31
2022/09/08 04:11:27;;;;;;;3.03;1.57;;;21.20;61.70;;;;;;20488;6853;278780;31
2022/09/08 04:13:53;;;;;;;1.93;1.37;;;21.40;61.50;;;;;;20449;6853;289661;31
2022/09/08 04:16:19;;;;;;;2.77;1.30;;;21.60;60.80;;;;;;20484;6853;313146;31
2022/09/08 04:18:44;;;;;;;5.60;1.50;;;21.80;59.50;;;;;;20695;6853;114375;31
2022/09/08 04:21:10;;;;;;;1.67;1.20;;;21.70;60.00;;;;;;20493;6853;279513;31
2022/09/08 04:23:36;;;;;;;1.60;1.30;;;21.70;59.40;;;;;;20469;6853;339124;31
2022/09/08 04:26:02;;;;;;;2.03;1.17;;;21.80;59.10;;;;;;20495;6853;339277;31
2022/09/08 04:28:27;;;;;;;1.63;0.80;;;22.00;58.60;;;;;;20674;6853;118479;31
2022/09/08 04:30:54;;;;;;;1.70;1.20;;;21.70;59.00;;;;;;20489;6853;283897;31
2022/09/08 04:33:20;;;;;;;1.15;1.10;;;21.70;58.80;;;;;;20494;6853;281489;31
2022/09/08 04:35:46;;;;;;;1.43;0.90;;;21.80;58.40;;;;;;20686;6853;126139;31
2022/09/08 04:38:11;;;;;;;1.42;1.23;;;21.60;59.10;;;;;;20494;6853;279562;31
2022/09/08 04:40:37;;;;;;;1.20;1.00;;;21.60;59.00;;;;;;20491;6853;312850;31
2022/09/08 04:43:02;;;;;;;1.70;1.00;;;21.70;58.30;;;;;;20705;6853;118019;31
2022/09/08 04:45:28;;;;;;;1.40;1.07;;;21.50;58.60;;;;;;20494;6853;282423;31
2022/09/08 04:47:56;;;;;;;1.02;0.85;;;21.50;58.70;;;;;;20482;6853;279550;31
2022/09/08 04:50:22;;;;;;;0.80;0.80;;;21.60;58.60;;;;;;20724;6853;116685;31
2022/09/08 04:52:47;;;;;;;0.93;0.93;;;21.40;59.10;;;;;;20544;6853;336590;31
2022/09/08 04:55:49;;;;;;;;;;;;;;;;;;;;;
2022/09/08 05:00:43;;;;;;;2.37;0.50;;;20.90;59.80;;;;;;19895;7012;119352;-89
2022/09/08 05:38:18;;;;;;;2.57;0.73;;;21.90;56.70;;;;;;21306;6601;89193;31
2022/09/08 05:40:43;;;;;;;0.73;0.73;;;21.60;57.60;;;;;;20752;6802;117280;31
2022/09/08 05:43:09;;;;;;;1.03;1.03;;;21.20;58.80;;;;;;20427;6867;283688;31
2022/09/08 05:45:35;;;;;;;2.60;1.10;;;21.20;59.00;;;;;;20404;6867;309775;31
2022/09/08 05:48:00;;;;;;;2.33;1.73;;;21.40;58.80;;;;;;20409;6867;313608;31
2022/09/08 05:50:26;;;;;;;1.20;1.10;;;21.60;58.40;;;;;;20362;6888;320185;31
2022/09/08 05:52:51;;;;;;;2.70;1.30;;;21.70;58.30;;;;;;20617;6873;118149;31
2022/09/08 05:55:17;;;;;;;1.37;1.03;;;21.40;58.90;;;;;;20340;6888;309213;31
2022/09/08 05:57:42;;;;;;;1.93;1.20;;;21.40;58.60;;;;;;20578;6882;153022;31
2022/09/08 06:00:08;;;;;;;0.88;0.85;;;21.20;59.10;;;;;;20593;6882;118545;31
2022/09/08 06:02:34;;;;;;;2.83;0.90;;;20.90;59.90;;;;;;20589;6882;117196;31
2022/09/08 06:05:01;;;;;;;1.30;1.20;;;20.60;60.60;;;;;;20596;6882;117159;31
2022/09/08 06:07:27;;;;;;;1.00;1.00;;;20.40;61.20;;;;;;20380;6882;309968;31
2022/09/08 06:09:55;;;;;;;1.00;0.97;;;20.60;60.90;;;;;;20566;6881;117088;31
2022/09/08 06:12:20;;;;;;;1.23;1.00;;;20.60;60.90;;;;;;20378;6882;309968;31
2022/09/08 06:14:46;;;;;;;1.00;1.00;;;20.80;60.30;;;;;;20581;6882;117608;31
2022/09/08 06:17:13;;;;;;;1.90;1.20;;;20.70;60.40;;;;;;20384;6882;309310;31
2022/09/08 06:19:38;;;;;;;1.50;1.10;;;20.80;60.10;;;;;;20575;6882;117196;31
2022/09/08 06:22:04;;;;;;;6.72;1.00;;;20.70;60.40;;;;;;20602;6882;117161;31
2022/09/08 06:24:30;;;;;;;1.10;0.93;;;20.50;61.00;;;;;;20603;6882;117187;31
2022/09/08 06:27:06;;;;;;;2.40;1.10;;;20.30;62.20;;;;;;20623;6882;117750;31
2022/09/08 06:29:43;;;;;;;1.03;1.00;;;20.20;62.30;;;;;;20588;6882;118233;31
2022/09/08 06:32:25;;;;;;;3.33;1.17;;;20.00;62.60;;;;;;20403;6882;279236;31
2022/09/08 06:34:51;;;;;;;1.10;1.00;;;20.30;61.30;;;;;;20440;6882;308608;31
2022/09/08 06:37:40;;;;;;;2.40;1.10;;;20.70;60.70;;;;;;20656;6875;118097;31
2022/09/08 06:40:09;;;;;;;2.43;1.20;;;20.70;60.90;;;;;;20398;6875;295739;31
2022/09/08 06:42:54;;;;;;;3.60;0.73;;;20.90;60.30;;;;;;20599;6872;117273;31
2022/09/08 06:45:30;;;;;;;0.70;0.70;;;20.80;60.60;;;;;;20591;6875;118268;31
2022/09/08 06:48:05;;;;;;;2.83;0.90;;;20.50;61.50;;;;;;20377;6870;308020;31
2022/09/08 06:50:33;;;;;;;0.90;0.77;;;20.70;60.70;;;;;;20127;6879;313955;31
2022/09/08 06:52:56;;;;;;;2.50;0.63;;;21.00;59.10;;;;;;20421;6879;278848;31
2022/09/08 06:55:28;;;;;;;0.82;0.80;;;21.20;58.70;;;;;;20598;6879;117505;31
2022/09/08 06:58:06;;;;;;;0.60;0.60;;;21.10;59.20;;;;;;20560;6881;119628;31
2022/09/08 07:00:41;;;;;;;0.93;0.90;;;20.80;60.00;;;;;;20568;6879;117270;31
2022/09/08 07:03:33;;;;;;;3.13;1.00;;;20.50;60.80;;;;;;20245;6879;118219;31
2022/09/08 07:06:08;;;;;;;0.60;0.60;;;20.30;61.30;;;;;;20572;6879;121020;31
2022/09/08 07:08:53;;;;;;;1.35;0.90;;;20.20;61.90;;;;;;20386;6879;342926;31
2022/09/08 07:11:21;;;;;;;2.10;0.80;;;20.50;61.80;;;;;;20400;6879;307829;31
2022/09/08 07:14:27;;;;;;;1.50;0.90;;;20.90;60.60;;;;;;20343;6879;314103;31
2022/09/08 07:17:09;;;;;;;1.10;1.00;;;21.30;59.60;;;;;;20610;6879;117204;31
2022/09/08 07:19:35;;;;;;;1.40;1.10;;;21.10;60.10;;;;;;20348;6879;280119;31
2022/09/08 07:22:03;;;;;;;1.10;1.00;;;21.20;59.30;;;;;;20351;6879;283971;31
2022/09/08 07:24:36;;;;;;;1.53;0.63;;;21.40;58.20;;;;;;20583;6879;123290;31
2022/09/08 07:26:58;;;;;;;1.07;0.93;;;21.30;58.90;;;;;;20344;6879;310157;31
2022/09/08 07:29:23;;;;;;;1.70;1.00;;;21.40;58.80;;;;;;20394;6879;280919;31
2022/09/08 07:31:50;;;;;;;3.07;0.80;;;21.70;58.20;;;;;;20526;6894;122617;31
2022/09/08 07:34:22;;;;;;;1.13;0.90;;;21.50;58.30;;;;;;20588;6879;121080;31
2022/09/08 07:37:11;;;;;;;1.03;0.83;;;21.20;58.90;;;;;;20389;6879;280625;31
2022/09/08 07:39:37;;;;;;;1.33;0.90;;;21.40;58.30;;;;;;20351;6879;281034;31
2022/09/08 07:42:03;;;;;;;1.77;0.80;;;21.70;57.00;;;;;;20319;6894;310560;31
2022/09/08 07:44:28;;;;;;;1.02;0.80;;;22.00;57.40;;;;;;20337;6894;309874;31
2022/09/08 07:47:16;;;;;;;0.85;0.65;;;22.20;56.30;;;;;;20606;6879;118783;31
2022/09/08 07:49:45;;;;;;;1.00;0.82;;;22.10;56.90;;;;;;20370;6879;343885;31
2022/09/08 07:52:43;;;;;;;2.33;1.13;;;22.20;55.90;;;;;;20528;6894;119130;31
2022/09/08 07:55:32;;;;;;;4.30;1.35;;;22.10;56.60;;;;;;20340;6897;281896;31
2022/09/08 07:58:04;;;;;;;1.90;1.20;;;22.30;56.40;;;;;;19873;6893;280194;31
2022/09/08 08:00:50;;;;;;;1.83;1.20;;;22.80;55.90;;;;;;20414;6873;280885;31
2022/09/08 08:03:36;;;;;;;1.50;0.90;;;23.20;56.30;;;;;;20413;6870;312900;31
2022/09/08 08:06:04;;;;;;;1.08;0.90;;;23.60;53.20;;;;;;19788;6870;341786;31
2022/09/08 08:08:33;;;;;;;0.90;0.90;;;23.90;54.70;;;;;;20594;6870;119167;31
2022/09/08 08:11:28;;;;;;;1.53;1.00;;;23.90;54.90;;;;;;19875;6875;125528;31
2022/09/08 08:14:03;;;;;;;2.10;0.90;;;23.70;55.60;;;;;;20363;6867;309988;31
2022/09/08 08:16:31;;;;;;;3.13;1.00;;;24.00;55.80;;;;;;20303;6886;119542;31
2022/09/08 08:19:17;;;;;;;1.40;1.00;;;24.10;55.80;;;;;;20410;6872;314420;31
2022/09/08 08:21:48;;;;;;;1.60;0.90;;;24.40;54.80;;;;;;20391;6872;309275;31
2022/09/08 08:24:27;;;;;;;1.33;0.90;;;24.80;53.70;;;;;;20383;6872;309297;31
2022/09/08 08:27:02;;;;;;;1.37;0.80;;;25.20;53.70;;;;;;20627;6872;118113;31
2022/09/08 08:29:41;;;;;;;1.63;0.90;;;25.20;53.60;;;;;;20408;6872;284457;31
2022/09/08 08:32:12;;;;;;;1.03;0.80;;;25.30;52.90;;;;;;20584;6872;117918;31
2022/09/08 08:34:49;;;;;;;1.53;0.97;;;25.20;53.20;;;;;;20625;6872;118077;31
2022/09/08 08:37:17;;;;;;;1.80;0.97;;;24.80;53.60;;;;;;20436;6872;292096;31
2022/09/08 08:39:45;;;;;;;2.08;1.00;;;24.80;51.30;;;;;;20411;6872;338672;31
2022/09/08 08:42:33;;;;;;;1.10;0.80;;;25.00;50.80;;;;;;20591;6887;119390;31
2022/09/08 08:45:21;;;;;;;2.57;1.10;;;24.80;51.80;;;;;;19952;6872;280550;31
2022/09/08 08:48:13;;;;;;;1.63;1.13;;;24.80;51.60;;;;;;20392;6872;314336;31
2022/09/08 08:51:01;;;;;;;2.70;1.20;;;25.00;52.20;;;;;;20441;6872;308542;31
2022/09/08 08:53:33;;;;;;;4.35;1.20;;;25.00;51.20;;;;;;20479;6872;313085;31
2022/09/08 08:56:18;;;;;;;3.93;1.10;;;25.30;52.30;;;;;;20621;6887;123365;31
2022/09/08 08:59:20;;;;;;;2.00;0.87;;;25.20;52.90;;;;;;20645;6872;116300;31
2022/09/08 09:02:09;;;;;;;1.03;0.70;;;25.20;53.50;;;;;;20614;6872;118255;31
2022/09/08 09:04:57;;;;;;;2.30;1.17;;;25.00;53.50;;;;;;20419;6872;309733;31
2022/09/08 09:07:48;;;;;;;0.97;0.97;;;25.20;51.60;;;;;;20587;6872;117105;31
2022/09/08 09:10:48;;;;;;;5.40;0.90;;;25.00;52.50;;;;;;20637;6872;126260;31
2022/09/08 09:13:33;;;;;;;1.70;1.10;;;24.60;52.80;;;;;;20433;6871;279599;31
2022/09/08 09:16:11;;;;;;;1.30;1.20;;;24.60;52.00;;;;;;20407;6871;280324;31
2022/09/08 09:19:16;;;;;;;1.55;1.00;;;24.60;51.20;;;;;;20316;6886;340272;31
2022/09/08 09:21:48;;;;;;;1.05;0.98;;;24.60;51.60;;;;;;20403;6872;313673;31
2022/09/08 09:24:15;;;;;;;2.30;1.00;;;24.60;51.60;;;;;;20412;6872;279324;31
2022/09/08 09:26:40;;;;;;;1.42;1.10;;;24.40;50.50;;;;;;20370;6872;344598;31
2022/09/08 09:29:22;;;;;;;1.90;1.07;;;24.30;51.00;;;;;;20599;6872;117276;31
2022/09/08 09:32:04;;;;;;;1.53;1.10;;;23.90;52.00;;;;;;20399;6872;279869;31
2022/09/08 09:34:52;;;;;;;1.87;1.10;;;23.80;52.40;;;;;;20393;6872;314876;31
2022/09/08 09:37:30;;;;;;;1.13;0.90;;;23.80;52.30;;;;;;20638;6872;120347;31
2022/09/08 09:40:32;;;;;;;1.53;1.00;;;23.50;53.10;;;;;;20563;6867;127251;31
2022/09/08 09:43:01;;;;;;;1.30;1.00;;;23.10;54.00;;;;;;20611;6870;124626;31
2022/09/08 09:45:26;;;;;;;1.10;1.00;;;22.80;54.60;;;;;;20592;6894;117744;31
2022/09/08 09:48:25;;;;;;;1.10;1.00;;;22.70;55.50;;;;;;20317;6890;330529;31
2022/09/08 09:51:03;;;;;;;2.67;1.13;;;23.10;55.90;;;;;;19582;6885;307326;31
2022/09/08 09:53:35;;;;;;;1.30;1.10;;;23.80;55.00;;;;;;20399;6870;306433;31
2022/09/08 09:56:17;;;;;;;1.47;1.10;;;24.40;55.40;;;;;;20364;6890;280610;31
2022/09/08 09:58:55;;;;;;;1.07;1.00;;;24.90;54.50;;;;;;20361;6885;280056;31
2022/09/08 10:01:41;;;;;;;5.50;1.47;;;25.30;52.10;;;;;;20439;6870;307395;31
2022/09/08 10:04:35;;;;;;;10.33;1.90;;;25.70;51.10;;;;;;19835;6885;312838;31
2022/09/08 10:07:21;;;;;;;6.30;1.15;;;26.00;51.30;;;;;;20477;6870;307352;31
2022/09/08 10:09:50;;;;;;;2.53;1.10;;;26.20;49.80;;;;;;20389;6870;312280;31
2022/09/08 10:12:25;;;;;;;2.60;1.10;;;26.40;49.90;;;;;;20551;6890;116434;31
2022/09/08 10:14:51;;;;;;;2.63;0.87;;;26.30;49.60;;;;;;20545;6885;118651;31
2022/09/08 10:17:51;;;;;;;0.73;0.73;;;26.00;50.20;;;;;;20596;6870;118112;31
2022/09/08 10:20:20;;;;;;;1.17;0.98;;;25.80;50.60;;;;;;20382;6885;277383;31
2022/09/08 10:22:55;;;;;;;1.10;1.10;;;26.10;48.40;;;;;;20635;6869;120931;31
2022/09/08 10:25:48;;;;;;;1.15;1.05;;;26.20;48.80;;;;;;20395;6870;336394;31
2022/09/08 10:28:13;;;;;;;0.70;0.70;;;26.40;48.10;;;;;;20561;6885;118286;31
2022/09/08 10:31:12;;;;;;;2.17;0.90;;;26.40;48.80;;;;;;20398;6870;295778;31
2022/09/08 10:33:54;;;;;;;1.70;0.80;;;26.60;46.80;;;;;;20524;6870;118305;31
2022/09/08 10:36:20;;;;;;;1.90;1.02;;;26.60;47.90;;;;;;20319;6890;346887;31
2022/09/08 10:39:05;;;;;;;0.80;0.70;;;26.80;45.30;;;;;;20549;6885;118812;31
2022/09/08 10:41:46;;;;;;;0.60;0.60;;;26.90;46.30;;;;;;19857;6870;119791;31
2022/09/08 10:44:38;;;;;;;0.97;0.97;;;26.80;46.70;;;;;;20549;6885;117330;31
2022/09/08 10:47:33;;;;;;;0.80;0.80;;;26.70;47.30;;;;;;20003;6870;309548;31
2022/09/08 10:50:06;;;;;;;1.80;0.90;;;27.00;46.40;;;;;;20416;6870;297718;31
2022/09/08 10:52:51;;;;;;;0.93;0.77;;;27.50;45.10;;;;;;20391;6890;287229;31
2022/09/08 10:55:46;;;;;;;0.80;0.75;;;27.70;42.20;;;;;;19799;6894;338710;31
2022/09/08 10:58:22;;;;;;;1.53;0.90;;;27.70;42.90;;;;;;20597;6882;117682;31
2022/09/08 11:01:07;;;;;;;1.17;0.80;;;27.30;44.20;;;;;;20540;6894;117658;31
2022/09/08 11:03:59;;;;;;;1.00;0.90;;;26.90;45.10;;;;;;20521;6889;117253;31
2022/09/08 11:06:58;;;;;;;1.97;0.70;;;26.70;46.40;;;;;;20349;6890;308543;31
2022/09/08 11:10:03;;;;;;;0.77;0.77;;;27.00;44.00;;;;;;19739;6902;119398;31
2022/09/08 11:12:45;;;;;;;0.93;0.70;;;27.20;44.20;;;;;;20543;6897;116364;31
2022/09/08 11:15:17;;;;;;;1.58;0.77;;;26.90;44.10;;;;;;20309;6900;308984;31
2022/09/08 11:17:43;;;;;;;0.97;0.73;;;27.00;41.80;;;;;;20500;6885;118872;31
2022/09/08 11:20:11;;;;;;;1.30;0.80;;;27.00;42.60;;;;;;20414;6870;281425;31
2022/09/08 11:22:43;;;;;;;1.30;0.60;;;27.10;42.20;;;;;;20559;6885;117261;31
2022/09/08 11:25:35;;;;;;;0.80;0.80;;;27.20;43.10;;;;;;20133;6870;342793;31
2022/09/08 11:28:33;;;;;;;1.27;0.63;;;27.30;42.30;;;;;;20445;6870;306384;31
2022/09/08 11:31:16;;;;;;;0.60;0.60;;;27.50;40.40;;;;;;20340;6885;308568;31
2022/09/08 11:33:57;;;;;;;1.00;0.80;;;27.60;40.40;;;;;;20373;6869;322892;31
2022/09/08 11:36:26;;;;;;;0.50;0.50;;;27.60;41.20;;;;;;20546;6884;117577;31
2022/09/08 11:39:18;;;;;;;0.82;0.68;;;27.40;41.70;;;;;;19719;6870;302477;31
2022/09/08 11:42:23;;;;;;;0.60;0.60;;;27.30;41.40;;;;;;20568;6870;117333;31
2022/09/08 11:45:09;;;;;;;1.17;0.80;;;27.00;43.10;;;;;;20369;6885;314301;31
2022/09/08 11:48:14;;;;;;;0.90;0.57;;;27.10;41.40;;;;;;20595;6870;117485;31
2022/09/08 11:50:59;;;;;;;0.70;0.60;;;27.00;42.60;;;;;;20509;6888;122491;31
2022/09/08 11:53:34;;;;;;;1.00;0.77;;;26.80;43.70;;;;;;20573;6887;122007;31
2022/09/08 11:56:03;;;;;;;1.90;1.80;;;26.60;43.20;;;;;;20354;6883;281378;31
2022/09/08 11:58:43;;;;;;;0.87;0.63;;;26.70;41.90;;;;;;20423;6883;117147;31
2022/09/08 12:01:48;;;;;;;0.97;0.80;;;26.70;42.60;;;;;;20360;6883;308538;31
2022/09/08 12:04:37;;;;;;;0.90;0.80;;;26.90;42.20;;;;;;20374;6884;279785;31
2022/09/08 12:07:23;;;;;;;0.70;0.67;;;27.30;41.80;;;;;;20372;6884;310228;31
2022/09/08 12:10:18;;;;;;;0.77;0.70;;;27.50;41.10;;;;;;20368;6884;280247;31
2022/09/08 12:13:01;;;;;;;1.80;1.00;;;27.80;40.80;;;;;;20378;6885;278555;31
2022/09/08 12:15:46;;;;;;;0.70;0.70;;;28.00;41.30;;;;;;20273;6900;309372;31
2022/09/08 12:18:25;;;;;;;2.73;0.73;;;28.20;40.30;;;;;;20597;6885;118008;31
2022/09/08 12:21:06;;;;;;;0.70;0.70;;;28.00;40.80;;;;;;20618;6885;121303;31
2022/09/08 12:23:49;;;;;;;0.83;0.70;;;27.60;40.70;;;;;;20390;6900;314128;31
2022/09/08 12:26:41;;;;;;;0.80;0.60;;;27.40;39.30;;;;;;20345;6897;281865;31
2022/09/08 12:29:19;;;;;;;1.60;0.83;;;27.40;38.40;;;;;;20531;6897;118468;31
2022/09/08 12:31:58;;;;;;;0.70;0.70;;;26.90;40.30;;;;;;19750;6893;120841;31
2022/09/08 12:34:37;;;;;;;1.60;0.80;;;26.40;41.60;;;;;;20525;6899;116991;31
2022/09/08 12:37:16;;;;;;;1.40;0.70;;;26.10;42.30;;;;;;20331;6899;314363;31
2022/09/08 12:40:08;;;;;;;1.40;0.80;;;26.30;42.20;;;;;;20293;6899;313166;31
2022/09/08 12:42:38;;;;;;;0.88;0.70;;;26.60;41.00;;;;;;20333;6899;313098;31
2022/09/08 12:45:18;;;;;;;1.08;0.85;;;27.00;41.10;;;;;;20315;6897;342211;31
2022/09/08 12:47:52;;;;;;;1.10;0.80;;;27.20;38.80;;;;;;20324;6898;309664;31
2022/09/08 12:50:40;;;;;;;1.73;0.85;;;27.30;39.10;;;;;;20342;6898;319536;31
2022/09/08 12:53:29;;;;;;;1.50;0.80;;;27.40;39.60;;;;;;20317;6898;279986;31
2022/09/08 12:56:00;;;;;;;1.02;0.70;;;27.40;40.00;;;;;;20303;6898;318320;31
2022/09/08 12:58:28;;;;;;;1.63;0.70;;;27.50;40.00;;;;;;20507;6897;118097;31
2022/09/08 13:00:56;;;;;;;1.12;0.80;;;27.40;40.90;;;;;;20317;6897;285018;31
2022/09/08 13:03:22;;;;;;;2.40;0.80;;;27.40;39.60;;;;;;20324;6897;317108;31
2022/09/08 13:06:01;;;;;;;1.57;0.70;;;27.50;38.70;;;;;;20312;6897;302904;31
2022/09/08 13:08:46;;;;;;;1.13;0.70;;;27.70;38.80;;;;;;20524;6892;117557;31
2022/09/08 13:11:12;;;;;;;0.67;0.67;;;27.50;40.10;;;;;;20356;6892;282337;31
2022/09/08 13:13:44;;;;;;;1.27;0.70;;;27.50;37.80;;;;;;20305;6892;312955;31
2022/09/08 13:16:16;;;;;;;1.93;1.30;;;27.50;38.10;;;;;;20564;6892;117393;31
2022/09/08 13:18:41;;;;;;;4.17;3.60;;;27.20;39.10;;;;;;20344;6892;305468;31
2022/09/08 13:21:13;;;;;;;1.70;0.73;;;27.10;39.00;;;;;;20329;6892;279335;31
2022/09/08 13:23:42;;;;;;;1.60;0.53;;;27.20;39.00;;;;;;20545;6892;117575;31
2022/09/08 13:26:34;;;;;;;1.40;0.80;;;27.00;40.00;;;;;;20334;6892;339280;31
2022/09/08 13:29:16;;;;;;;0.87;0.80;;;27.10;39.70;;;;;;20570;6892;117548;31
2022/09/08 13:32:01;;;;;;;1.73;0.67;;;27.00;40.30;;;;;;20538;6897;118985;31
2022/09/08 13:34:57;;;;;;;0.50;0.50;;;26.80;40.30;;;;;;20503;6897;116827;31
2022/09/08 13:37:36;;;;;;;1.07;0.77;;;26.60;40.50;;;;;;20377;6897;308640;31
2022/09/08 13:40:18;;;;;;;2.33;0.77;;;26.70;39.10;;;;;;20346;6897;279477;31
2022/09/08 13:43:04;;;;;;;0.70;0.70;;;26.90;39.30;;;;;;19921;6897;308941;31
2022/09/08 13:45:35;;;;;;;0.90;0.80;;;27.10;39.00;;;;;;20334;6897;310203;31
2022/09/08 13:48:22;;;;;;;3.70;0.80;;;27.30;39.30;;;;;;20511;6897;118191;31
2022/09/08 13:51:00;;;;;;;2.10;0.70;;;27.10;39.50;;;;;;20325;6897;283349;31
2022/09/08 13:53:25;;;;;;;1.07;0.90;;;27.10;38.10;;;;;;20305;6897;311804;31
2022/09/08 13:55:51;;;;;;;1.00;0.63;;;27.30;38.70;;;;;;20556;6897;117900;31
2022/09/08 13:58:39;;;;;;;1.53;0.77;;;27.20;38.80;;;;;;20318;6896;309432;31
2022/09/08 14:01:08;;;;;;;2.60;0.90;;;27.30;38.20;;;;;;20343;6896;309822;31
2022/09/08 14:03:43;;;;;;;2.33;0.83;;;27.60;37.90;;;;;;20533;6897;117176;31
2022/09/08 14:06:09;;;;;;;1.73;0.60;;;27.50;38.70;;;;;;20343;6897;332743;31
2022/09/08 14:08:34;;;;;;;1.53;0.90;;;27.50;37.10;;;;;;20550;6897;122587;31
2022/09/08 14:11:06;;;;;;;0.93;0.90;;;27.40;38.30;;;;;;20313;6897;279693;31